Time;durP1;ratioP1;P1;durP2;ratioP2;P2;SDS_P1;SDS_P2;PMS_P1;PMS_P2;Temp;Humidity;BMP_temperature;BMP_pressure;BME280_temperature;BME280_humidity;BME280_pressure;Samples;Min_cycle;Max_cycle;Signal;HPM_P1;HPM_P2
2021/03/16 00:00:32;;;;;;;;;;;;;;;-144.01;100.00;62166.59;5078097;28;20299;-68
2021/03/16 00:03:18;;;;;;;;;;;;;;;-144.01;100.00;62166.59;5078156;28;19917;-69
2021/03/16 00:05:53;;;;;;;;;;;;;;;-144.01;100.00;62166.59;5077960;28;19913;-70
2021/03/16 00:08:20;;;;;;;;;;;;;;;-144.01;100.00;62166.59;5060139;28;19913;-70
2021/03/16 00:10:47;;;;;;;;;;;;;;;-144.01;100.00;62166.59;5077764;28;19920;-70
2021/03/16 00:13:14;;;;;;;;;;;;;;;-144.01;100.00;62166.59;5077845;28;20330;-70
2021/03/16 00:15:41;;;;;;;;;;;;;;;-144.01;100.00;62166.59;5077606;28;19919;-65
2021/03/16 00:18:14;;;;;;;;;;;;;;;-144.01;100.00;62166.59;5077520;28;19912;-69
2021/03/16 00:20:42;;;;;;;;;;;;;;;-144.01;100.00;62166.59;5077609;28;20302;-66
2021/03/16 00:23:09;;;;;;;;;;;;;;;-144.01;100.00;62166.59;5077621;28;19923;-63
2021/03/16 00:25:36;;;;;;;;;;;;;;;-144.01;100.00;62166.59;5059501;28;19912;-69
2021/03/16 00:28:03;;;;;;;;;;;;;;;-144.01;100.00;62166.59;5082909;28;19920;-69
2021/03/16 00:30:30;;;;;;;;;;;;;;;-144.01;100.00;62166.59;5097765;28;20199;-69
2021/03/16 00:32:58;;;;;;;;;;;;;;;-144.01;100.00;62166.59;5097772;28;20295;-53
2021/03/16 00:35:24;;;;;;;;;;;;;;;-144.01;100.00;62166.59;5097639;28;20230;-56
2021/03/16 00:37:51;;;;;;;;;;;;;;;-144.01;100.00;62166.59;5085677;28;19923;-64
2021/03/16 00:40:18;;;;;;;;;;;;;;;-144.01;100.00;62166.59;5077534;28;19916;-69
2021/03/16 00:42:45;;;;;;;;;;;;;;;-144.01;100.00;62166.59;5076817;28;20218;-69
2021/03/16 00:45:13;;;;;;;;;;;;;;;-144.01;100.00;62166.59;5077473;28;19919;-69
2021/03/16 00:47:39;;;;;;;;;;;;;;;-144.01;100.00;62166.59;5077275;28;19916;-69
2021/03/16 00:50:08;;;;;;;;;;;;;;;-144.01;100.00;62166.59;5059803;28;19916;-69
2021/03/16 00:52:35;;;;;;;;;;;;;;;-144.01;100.00;62166.59;5057460;28;19912;-69
2021/03/16 00:55:04;;;;;;;;;;;;;;;-144.01;100.00;62166.59;5056970;28;19920;-69
2021/03/16 00:57:32;;;;;;;;;;;;;;;-144.01;100.00;62166.59;5064245;28;19916;-69
2021/03/16 00:59:58;;;;;;;;;;;;;;;-144.01;100.00;62166.59;5077120;28;19916;-69
2021/03/16 01:02:25;;;;;;;;;;;;;;;-144.01;100.00;62166.59;5077080;28;19912;-69
2021/03/16 01:04:52;;;;;;;;;;;;;;;-144.01;100.00;62166.59;5075933;28;20349;-70
2021/03/16 01:07:19;;;;;;;;;;;;;;;-144.01;100.00;62166.59;5076962;28;19923;-69
2021/03/16 01:09:46;;;;;;;;;;;;;;;-144.01;100.00;62166.59;5076831;28;19923;-69
2021/03/16 01:12:13;;;;;;;;;;;;;;;-144.01;100.00;62166.59;5073132;28;20433;-69
2021/03/16 01:14:40;;;;;;;;;;;;;;;-144.01;100.00;62166.59;5056998;28;19913;-69
2021/03/16 01:17:07;;;;;;;;;;;;;;;-144.01;100.00;62166.59;5076519;28;20231;-69
2021/03/16 01:19:34;;;;;;;;;;;;;;;-144.01;100.00;62166.59;5076726;28;19913;-69
2021/03/16 01:22:01;;;;;;;;;;;;;;;-144.01;100.00;62166.59;5076845;28;20299;-69
2021/03/16 01:24:28;;;;;;;;;;;;;;;-144.01;100.00;62166.59;5076690;28;19912;-69
2021/03/16 01:26:55;;;;;;;;;;;;;;;-144.01;100.00;62166.59;5075743;28;19927;-69
2021/03/16 01:29:22;;;;;;;;;;;;;;;-144.01;100.00;62166.59;5076395;28;20307;-68
2021/03/16 01:31:49;;;;;;;;;;;;;;;-144.01;100.00;62166.59;5090254;28;19927;-69
2021/03/16 01:34:16;;;;;;;;;;;;;;;-144.01;100.00;62166.59;5076536;28;20349;-69
2021/03/16 01:36:43;;;;;;;;;;;;;;;-144.01;100.00;62166.59;5076154;28;19919;-69
2021/03/16 01:39:10;;;;;;;;;;;;;;;-144.01;100.00;62166.59;5075984;28;19912;-61
2021/03/16 01:41:37;;;;;;;;;;;;;;;-144.01;100.00;62166.59;5076362;28;19916;-62
2021/03/16 01:44:04;;;;;;;;;;;;;;;-144.01;100.00;62166.59;5076314;28;19919;-68
2021/03/16 01:46:31;;;;;;;;;;;;;;;-144.01;100.00;62166.59;5070203;28;19912;-69
2021/03/16 01:48:58;;;;;;;;;;;;;;;-144.01;100.00;62166.59;5076331;28;19920;-69
2021/03/16 01:51:24;;;;;;;;;;;;;;;-144.01;100.00;62166.59;5076499;28;20235;-69
2021/03/16 01:53:51;;;;;;;;;;;;;;;-144.01;100.00;62166.59;5075983;28;19916;-72
2021/03/16 01:56:18;;;;;;;;;;;;;;;-144.01;100.00;62166.59;5075872;28;19912;-50
2021/03/16 01:59:03;;;;;;;;;;;;;;;-144.01;100.00;62166.59;5069091;28;19916;-51
2021/03/16 02:01:49;;;;;;;;;;;;;;;-144.01;100.00;62166.59;5061205;28;19920;-51
2021/03/16 02:04:35;;;;;;;;;;;;;;;-144.01;100.00;62166.59;5076349;28;19919;-72
2021/03/16 02:07:23;;;;;;;;;;;;;;;-144.01;100.00;62166.59;5056259;28;19913;-62
2021/03/16 02:10:29;;;;;;;;;;;;;;;-144.01;100.00;62166.59;5055302;28;19920;-73
2021/03/16 02:13:20;;;;;;;;;;;;;;;-144.01;100.00;62166.59;5040326;28;19912;-58
2021/03/16 02:16:15;;;;;;;;;;;;;;;-144.01;100.00;62166.59;5064265;28;19938;-74
2021/03/16 02:19:01;;;;;;;;;;;;;;;-144.01;100.00;62166.59;5076041;28;20329;-62
2021/03/16 02:21:46;;;;;;;;;;;;;;;-144.01;100.00;62166.59;5075882;28;19919;-73
2021/03/16 02:24:51;;;;;;;;;;;;;;;-144.01;100.00;62166.59;5058889;28;20243;-62
2021/03/16 02:27:42;;;;;;;;;;;;;;;-144.01;100.00;62166.59;5068047;28;20231;-54
2021/03/16 02:30:28;;;;;;;;;;;;;;;-144.01;100.00;62166.59;5075577;28;19917;-57
2021/03/16 02:33:14;;;;;;;;;;;;;;;-144.01;100.00;62166.59;5054682;28;20259;-73
2021/03/16 02:36:00;;;;;;;;;;;;;;;-144.01;100.00;62166.59;5055035;28;19917;-58
2021/03/16 02:38:46;;;;;;;;;;;;;;;-144.01;100.00;62166.59;5054624;28;19913;-51
2021/03/16 02:41:32;;;;;;;;;;;;;;;-144.01;100.00;62166.59;5054426;28;19920;-50
2021/03/16 02:44:17;;;;;;;;;;;;;;;-144.01;100.00;62166.59;5055677;28;19924;-73
2021/03/16 02:47:03;;;;;;;;;;;;;;;-144.01;100.00;62166.59;5071708;28;19912;-73
2021/03/16 02:49:49;;;;;;;;;;;;;;;-144.01;100.00;62166.59;5075222;28;19924;-56
2021/03/16 02:52:34;;;;;;;;;;;;;;;-144.01;100.00;62166.59;5060404;28;20311;-55
2021/03/16 02:55:20;;;;;;;;;;;;;;;-144.01;100.00;62166.59;5055979;28;19917;-73
2021/03/16 02:58:06;;;;;;;;;;;;;;;-144.01;100.00;62166.59;5059921;28;19916;-50
2021/03/16 03:00:51;;;;;;;;;;;;;;;-144.01;100.00;62166.59;5075266;28;19913;-71
2021/03/16 03:03:37;;;;;;;;;;;;;;;-144.01;100.00;62166.59;5060268;28;19920;-72
2021/03/16 03:06:22;;;;;;;;;;;;;;;-144.01;100.00;62166.59;5063116;28;19912;-72
2021/03/16 03:09:11;;;;;;;;;;;;;;;-144.01;100.00;62166.59;5063977;28;19920;-52
2021/03/16 03:11:57;;;;;;;;;;;;;;;-144.01;100.00;62166.59;5078809;28;19920;-55
2021/03/16 03:14:42;;;;;;;;;;;;;;;-144.01;100.00;62166.59;5078649;28;19912;-54
2021/03/16 03:17:28;;;;;;;;;;;;;;;-144.01;100.00;62166.59;5078348;28;19912;-64
2021/03/16 03:20:14;;;;;;;;;;;;;;;-144.01;100.00;62166.59;5078805;28;20239;-72
2021/03/16 03:23:23;;;;;;;;;;;;;;;-144.01;100.00;62166.59;5076432;28;19916;-62
2021/03/16 03:26:31;;;;;;;;;;;;;;;-144.01;100.00;62166.59;5064441;28;20274;-51
2021/03/16 03:29:42;;;;;;;;;;;;;;;-144.01;100.00;62166.59;5016091;28;19921;-71
2021/03/16 03:32:28;;;;;;;;;;;;;;;-144.01;100.00;62166.59;5016948;28;19918;-72
2021/03/16 03:35:14;;;;;;;;;;;;;;;-144.01;100.00;62166.59;5003351;28;20398;-72
2021/03/16 03:38:00;;;;;;;;;;;;;;;-144.01;100.00;62166.59;5017466;28;20322;-50
2021/03/16 03:40:46;;;;;;;;;;;;;;;-144.01;100.00;62166.59;5018585;28;19913;-56
2021/03/16 03:43:33;;;;;;;;;;;;;;;-144.01;100.00;62166.59;5017954;28;19924;-51
2021/03/16 03:46:18;;;;;;;;;;;;;;;-144.01;100.00;62166.59;5018659;28;19918;-50
2021/03/16 03:49:04;;;;;;;;;;;;;;;-144.01;100.00;62166.59;5018139;28;20224;-54
2021/03/16 03:51:49;;;;;;;;;;;;;;;-144.01;100.00;62166.59;5018325;28;19913;-71
2021/03/16 03:54:35;;;;;;;;;;;;;;;-144.01;100.00;62166.59;5018573;28;20335;-72
2021/03/16 03:57:20;;;;;;;;;;;;;;;-144.01;100.00;62166.59;5018068;28;20232;-72
2021/03/16 04:00:06;;;;;;;;;;;;;;;-144.01;100.00;62166.59;5018176;28;19917;-61
2021/03/16 04:02:52;;;;;;;;;;;;;;;-144.01;100.00;62166.59;5018026;28;19914;-56
2021/03/16 04:05:37;;;;;;;;;;;;;;;-144.01;100.00;62166.59;5018150;28;19924;-51
2021/03/16 04:08:23;;;;;;;;;;;;;;;-144.01;100.00;62166.59;5018111;28;19917;-49
2021/03/16 04:11:08;;;;;;;;;;;;;;;-144.01;100.00;62166.59;5012211;28;19920;-57
2021/03/16 04:13:54;;;;;;;;;;;;;;;-144.01;100.00;62166.59;5018175;28;19917;-57
2021/03/16 04:16:43;;;;;;;;;;;;;;;-144.01;100.00;62166.59;5017791;28;19920;-66
2021/03/16 04:19:28;;;;;;;;;;;;;;;-144.01;100.00;62166.59;5018016;28;19914;-58
2021/03/16 04:22:14;;;;;;;;;;;;;;;-144.01;100.00;62166.59;5017601;28;20240;-55
2021/03/16 04:24:59;;;;;;;;;;;;;;;-144.01;100.00;62166.59;5017979;28;19921;-62
2021/03/16 04:27:44;;;;;;;;;;;;;;;-144.01;100.00;62166.59;5028049;28;19912;-69
2021/03/16 04:30:30;;;;;;;;;;;;;;;-144.01;100.00;62166.59;5057518;28;19928;-61
2021/03/16 04:33:15;;;;;;;;;;;;;;;-144.01;100.00;62166.59;5037439;28;19928;-62
2021/03/16 04:36:01;;;;;;;;;;;;;;;-144.01;100.00;62166.59;5037558;28;20209;-55
2021/03/16 04:38:46;;;;;;;;;;;;;;;-144.01;100.00;62166.59;5037208;28;19913;-61
2021/03/16 04:41:32;;;;;;;;;;;;;;;-144.01;100.00;62166.59;5037144;28;19913;-58
2021/03/16 04:44:17;;;;;;;;;;;;;;;-144.01;100.00;62166.59;5037462;28;19913;-56
2021/03/16 04:47:03;;;;;;;;;;;;;;;-144.01;100.00;62166.59;5037161;28;19917;-58
2021/03/16 04:49:49;;;;;;;;;;;;;;;-144.01;100.00;62166.59;5036114;28;19920;-62
2021/03/16 04:52:35;;;;;;;;;;;;;;;-144.01;100.00;62166.59;5036142;28;19920;-50
2021/03/16 04:55:20;;;;;;;;;;;;;;;-144.01;100.00;62166.59;5036936;28;19916;-52
2021/03/16 04:58:05;;;;;;;;;;;;;;;-144.01;100.00;62166.59;5026411;28;19914;-53
2021/03/16 05:00:51;;;;;;;;;;;;;;;-144.01;100.00;62166.59;5036219;28;20228;-54
2021/03/16 05:03:36;;;;;;;;;;;;;;;-144.01;100.00;62166.59;5036782;28;20357;-48
2021/03/16 05:06:22;;;;;;;;;;;;;;;-144.01;100.00;62166.59;5036961;28;20319;-49
2021/03/16 05:09:08;;;;;;;;;;;;;;;-144.01;100.00;62166.59;5036570;28;19913;-49
2021/03/16 05:11:53;;;;;;;;;;;;;;;-144.01;100.00;62166.59;5036552;28;20296;-48
2021/03/16 05:14:39;;;;;;;;;;;;;;;-144.01;100.00;62166.59;5036770;28;19913;-53
2021/03/16 05:17:25;;;;;;;;;;;;;;;-144.01;100.00;62166.59;5032026;28;19921;-50
2021/03/16 05:20:10;;;;;;;;;;;;;;;-144.01;100.00;62166.59;5036477;28;20298;-54
2021/03/16 05:22:56;;;;;;;;;;;;;;;-144.01;100.00;62166.59;5034962;28;20238;-55
2021/03/16 05:25:41;;;;;;;;;;;;;;;-144.01;100.00;62166.59;5016564;28;19944;-54
2021/03/16 05:28:27;;;;;;;;;;;;;;;-144.01;100.00;62166.59;5027971;28;19917;-53
2021/03/16 05:31:12;;;;;;;;;;;;;;;-144.01;100.00;62166.59;5035997;28;19921;-57
2021/03/16 05:33:59;;;;;;;;;;;;;;;-144.01;100.00;62166.59;5035561;28;19920;-57
2021/03/16 05:36:47;;;;;;;;;;;;;;;-144.01;100.00;62166.59;5035048;28;19913;-62
2021/03/16 05:39:41;;;;;;;;;;;;;;;-144.01;100.00;62166.59;5035170;28;19920;-53
2021/03/16 05:42:54;;;;;;;;;;;;;;;-144.01;100.00;62166.59;5035760;28;19921;-66
2021/03/16 05:45:39;;;;;;;;;;;;;;;-144.01;100.00;62166.59;5015561;28;19918;-66
2021/03/16 05:48:25;;;;;;;;;;;;;;;-144.01;100.00;62166.59;5015344;28;19913;-66
2021/03/16 05:51:10;;;;;;;;;;;;;;;-144.01;100.00;62166.59;5016492;28;20332;-67
2021/03/16 05:53:56;;;;;;;;;;;;;;;-144.01;100.00;62166.59;5026904;28;19913;-66
2021/03/16 05:56:41;;;;;;;;;;;;;;;-144.01;100.00;62166.59;5035689;28;19918;-64
2021/03/16 05:59:27;;;;;;;;;;;;;;;-144.01;100.00;62166.59;5035789;28;19917;-68
2021/03/16 06:02:12;;;;;;;;;;;;;;;-144.01;100.00;62166.59;5035958;28;20225;-68
2021/03/16 06:04:59;;;;;;;;;;;;;;;-144.01;100.00;62166.59;5048195;28;19939;-65
2021/03/16 06:07:51;;;;;;;;;;;;;;;-144.01;100.00;62166.59;5015934;28;19913;-67
2021/03/16 06:10:36;;;;;;;;;;;;;;;-144.01;100.00;62166.59;5016109;28;20300;-65
2021/03/16 06:13:24;;;;;;;;;;;;;;;-144.01;100.00;62166.59;5007011;28;19913;-67
2021/03/16 06:16:16;;;;;;;;;;;;;;;-144.01;100.00;62166.59;5035734;28;20315;-58
2021/03/16 06:19:02;;;;;;;;;;;;;;;-144.01;100.00;62166.59;5035667;28;19917;-67
2021/03/16 06:22:14;;;;;;;;;;;;;;;-144.01;100.00;62166.59;5035692;28;19920;-66
2021/03/16 06:24:59;;;;;;;;;;;;;;;-144.01;100.00;62166.59;5035403;28;19913;-59
2021/03/16 06:27:46;;;;;;;;;;;;;;;-144.01;100.00;62166.59;5034836;28;19921;-65
2021/03/16 06:30:32;;;;;;;;;;;;;;;-144.01;100.00;62166.59;5035691;28;20324;-66
2021/03/16 06:33:18;;;;;;;;;;;;;;;-144.01;100.00;62166.59;5029026;28;19917;-61
2021/03/16 06:36:05;;;;;;;;;;;;;;;-144.01;100.00;62166.59;5048986;28;19913;-59
2021/03/16 06:38:50;;;;;;;;;;;;;;;-144.01;100.00;62166.59;5028557;28;19913;-58
2021/03/16 06:41:36;;;;;;;;;;;;;;;-144.01;100.00;62166.59;5039458;28;19920;-59
2021/03/16 06:44:22;;;;;;;;;;;;;;;-144.01;100.00;62166.59;5039242;28;19913;-62
2021/03/16 06:47:12;;;;;;;;;;;;;;;-144.01;100.00;62166.59;5031101;28;19921;-66
2021/03/16 06:49:58;;;;;;;;;;;;;;;-144.01;100.00;62166.59;5038790;28;19913;-67
2021/03/16 06:52:50;;;;;;;;;;;;;;;-144.01;100.00;62166.59;5032390;28;19927;-57
2021/03/16 06:55:35;;;;;;;;;;;;;;;-144.01;100.00;62166.59;5044140;28;19920;-58
2021/03/16 06:58:21;;;;;;;;;;;;;;;-144.01;100.00;62166.59;5040183;28;19916;-67
2021/03/16 07:01:12;;;;;;;;;;;;;;;-144.01;100.00;62166.59;5039302;28;20232;-67
2021/03/16 07:03:59;;;;;;;;;;;;;;;-144.01;100.00;62166.59;5039300;28;19941;-67
2021/03/16 07:06:44;;;;;;;;;;;;;;;-144.01;100.00;62166.59;5033239;28;19913;-66
2021/03/16 07:09:30;;;;;;;;;;;;;;;-144.01;100.00;62166.59;5019541;28;19921;-67
2021/03/16 07:12:18;;;;;;;;;;;;;;;-144.01;100.00;62166.59;5019133;28;19922;-65
2021/03/16 07:15:04;;;;;;;;;;;;;;;-144.01;100.00;62166.59;5034514;28;19917;-60
2021/03/16 07:17:49;;;;;;;;;;;;;;;-144.01;100.00;62166.59;5023391;28;20296;-60
2021/03/16 07:20:35;;;;;;;;;;;;;;;-144.01;100.00;62166.59;5038030;28;19913;-65
2021/03/16 07:23:21;;;;;;;;;;;;;;;-144.01;100.00;62166.59;5037795;28;19913;-59
2021/03/16 07:26:06;;;;;;;;;;;;;;;-144.01;100.00;62166.59;5052128;28;19913;-61
2021/03/16 07:28:52;;;;;;;;;;;;;;;-144.01;100.00;62166.59;5037873;28;19928;-63
2021/03/16 07:31:43;;;;;;;;;;;;;;;-144.01;100.00;62166.59;5037807;28;19928;-65
2021/03/16 07:34:29;;;;;;;;;;;;;;;-144.01;100.00;62166.59;5038143;28;19913;-65
2021/03/16 07:37:14;;;;;;;;;;;;;;;-144.01;100.00;62166.59;5038223;28;19988;-63
2021/03/16 07:40:01;;;;;;;;;;;;;;;-144.01;100.00;62166.59;5045917;28;19920;-60
2021/03/16 07:42:47;;;;;;;;;;;;;;;-144.01;100.00;62166.59;5038302;28;20326;-65
2021/03/16 07:45:33;;;;;;;;;;;;;;;-144.01;100.00;62166.59;5037351;28;19919;-63
2021/03/16 07:48:19;;;;;;;;;;;;;;;-144.01;100.00;62166.59;5038065;28;20640;-65
2021/03/16 07:51:23;;;;;;;;;;;;;;;-144.01;100.00;62166.59;5037499;28;20300;-65
2021/03/16 07:54:08;;;;;;;;;;;;;;;-144.01;100.00;62166.59;5037813;28;20200;-65
2021/03/16 07:56:58;;;;;;;;;;;;;;;-144.01;100.00;62166.59;5031024;28;19947;-64
2021/03/16 07:59:44;;;;;;;;;;;;;;;-144.01;100.00;62166.59;5037651;28;19928;-64
2021/03/16 08:02:32;;;;;;;;;;;;;;;-144.01;100.00;62166.59;5050972;28;19920;-66
2021/03/16 08:05:18;;;;;;;;;;;;;;;-144.01;100.00;62166.59;5037532;28;19924;-65
2021/03/16 08:08:12;;;;;;;;;;;;;;;-144.01;100.00;62166.59;5036726;28;19913;-65
2021/03/16 08:11:05;;;;;;;;;;;;;;;-144.01;100.00;62166.59;5037563;28;19917;-61
2021/03/16 08:13:57;;;;;;;;;;;;;;;-144.01;100.00;62166.59;5037458;28;19917;-64
2021/03/16 08:16:43;;;;;;;;;;;;;;;-144.01;100.00;62166.59;5037479;28;19951;-65
2021/03/16 08:19:39;;;;;;;;;;;;;;;-144.01;100.00;62166.59;5030405;28;19920;-64
2021/03/16 08:22:25;;;;;;;;;;;;;;;-144.01;100.00;62166.59;5026936;28;19924;-59
2021/03/16 08:25:11;;;;;;;;;;;;;;;-144.01;100.00;62166.59;5047491;28;19924;-66
2021/03/16 08:27:57;;;;;;;;;;;;;;;-144.01;100.00;62166.59;5046910;28;19917;-63
2021/03/16 08:30:42;;;;;;;;;;;;;;;-144.01;100.00;62166.59;5035713;28;19932;-64
2021/03/16 08:33:32;;;;;;;;;;;;;;;-144.01;100.00;62166.59;5034597;28;20351;-68
2021/03/16 08:36:17;;;;;;;;;;;;;;;-144.01;100.00;62166.59;5037785;28;19920;-66
2021/03/16 08:42:18;;;;;;;;;;;;;;;-144.01;100.00;62166.59;5037307;28;19924;-63
2021/03/16 08:45:04;;;;;;;;;;;;;;;-144.01;100.00;62166.59;5037227;28;19920;-66
2021/03/16 08:47:49;;;;;;;;;;;;;;;-144.01;100.00;62166.59;5037164;28;19913;-64
2021/03/16 08:50:35;;;;;;;;;;;;;;;-144.01;100.00;62166.59;5037365;28;19924;-65
2021/03/16 08:53:21;;;;;;;;;;;;;;;-144.01;100.00;62166.59;5037082;28;20216;-66
2021/03/16 08:56:06;;;;;;;;;;;;;;;-144.01;100.00;62166.59;5037258;28;19920;-62
2021/03/16 08:58:53;;;;;;;;;;;;;;;-144.01;100.00;62166.59;5030576;28;20316;-65
2021/03/16 09:01:39;;;;;;;;;;;;;;;-144.01;100.00;62166.59;5017411;28;19922;-65
2021/03/16 09:04:24;;;;;;;;;;;;;;;-144.01;100.00;62166.59;5017535;28;19913;-64
2021/03/16 09:07:10;;;;;;;;;;;;;;;-144.01;100.00;62166.59;5036901;28;19943;-64
2021/03/16 09:10:05;;;;;;;;;;;;;;;-144.01;100.00;62166.59;5037062;28;19921;-66
2021/03/16 09:12:51;;;;;;;;;;;;;;;-144.01;100.00;62166.59;5036231;28;19924;-67
2021/03/16 09:15:37;;;;;;;;;;;;;;;-144.01;100.00;62166.59;5036756;28;19921;-62
2021/03/16 09:18:22;;;;;;;;;;;;;;;-144.01;100.00;62166.59;5036662;28;19920;-63
2021/03/16 09:21:08;;;;;;;;;;;;;;;-144.01;100.00;62166.59;5036539;28;19920;-61
2021/03/16 09:24:00;;;;;;;;;;;;;;;-144.01;100.00;62166.59;5036379;28;19913;-66
2021/03/16 09:26:52;;;;;;;;;;;;;;;-144.01;100.00;62166.59;5036503;28;19913;-61
2021/03/16 09:29:37;;;;;;;;;;;;;;;-144.01;100.00;62166.59;5027783;28;19925;-65
2021/03/16 09:32:23;;;;;;;;;;;;;;;-144.01;100.00;62166.59;5036467;28;19917;-65
2021/03/16 09:35:09;;;;;;;;;;;;;;;-144.01;100.00;62166.59;5048670;28;19920;-65
2021/03/16 09:37:54;;;;;;;;;;;;;;;-144.01;100.00;62166.59;5049461;28;19920;-66
2021/03/16 09:40:42;;;;;;;;;;;;;;;-144.01;100.00;62166.59;5005819;28;20217;-66
2021/03/16 09:43:25;;;;;;;;;;;;;;;-144.01;100.00;62166.59;5015707;28;19921;-65
2021/03/16 09:45:53;;;;;;;;;;;;;;;-144.01;100.00;62166.59;5029615;28;20288;-62
2021/03/16 09:48:20;;;;;;;;;;;;;;;-144.01;100.00;62166.59;5035145;28;20246;-63
2021/03/16 09:50:48;;;;;;;;;;;;;;;-144.01;100.00;62166.59;5036320;28;20291;-64
2021/03/16 09:53:15;;;;;;;;;;;;;;;-144.01;100.00;62166.59;5036193;28;20330;-65
2021/03/16 09:55:43;;;;;;;;;;;;;;;-144.01;100.00;62166.59;5027866;28;19920;-63
2021/03/16 09:58:19;;;;;;;;;;;;;;;-144.01;100.00;62166.59;5035737;28;19920;-67
2021/03/16 10:00:47;;;;;;;;;;;;;;;-144.01;100.00;62166.59;5036253;28;19924;-66
2021/03/16 10:03:15;;;;;;;;;;;;;;;-144.01;100.00;62166.59;5036082;28;19924;-64
2021/03/16 10:05:42;;;;;;;;;;;;;;;-144.01;100.00;62166.59;5020024;28;19917;-59
2021/03/16 10:08:23;;;;;;;;;;;;;;;-144.01;100.00;62166.59;5035945;28;20303;-64
2021/03/16 10:10:50;;;;;;;;;;;;;;;-144.01;100.00;62166.59;5036206;28;19913;-67
2021/03/16 10:13:17;;;;;;;;;;;;;;;-144.01;100.00;62166.59;5036120;28;19928;-67
2021/03/16 10:15:44;;;;;;;;;;;;;;;-144.01;100.00;62166.59;5058003;28;19913;-57
2021/03/16 10:18:12;;;;;;;;;;;;;;;-144.01;100.00;62166.59;5042504;28;19913;-60
2021/03/16 10:20:40;;;;;;;;;;;;;;;-144.01;100.00;62166.59;5041948;28;19920;-62
2021/03/16 10:23:07;;;;;;;;;;;;;;;-144.01;100.00;62166.59;5042429;28;19920;-66
2021/03/16 10:25:35;;;;;;;;;;;;;;;-144.01;100.00;62166.59;5047635;28;19912;-64
2021/03/16 10:28:03;;;;;;;;;;;;;;;-144.01;100.00;62166.59;5051363;28;19924;-62
2021/03/16 10:30:31;;;;;;;;;;;;;;;-144.01;100.00;62166.59;5042209;28;19917;-65
2021/03/16 10:32:58;;;;;;;;;;;;;;;-144.01;100.00;62166.59;5042181;28;19928;-66
2021/03/16 10:35:25;;;;;;;;;;;;;;;-144.01;100.00;62166.59;5041783;28;19980;-67
2021/03/16 10:37:56;;;;;;;;;;;;;;;-144.01;100.00;62166.59;5024958;28;20262;-61
2021/03/16 10:40:23;;;;;;;;;;;;;;;-144.01;100.00;62166.59;5057924;28;20257;-63
2021/03/16 10:43:16;;;;;;;;;;;;;;;-144.01;100.00;62166.59;5024517;28;19913;-67
2021/03/16 10:45:43;;;;;;;;;;;;;;;-144.01;100.00;62166.59;5041836;28;20354;-66
2021/03/16 10:48:10;;;;;;;;;;;;;;;-144.01;100.00;62166.59;5041939;28;19917;-67
2021/03/16 10:50:37;;;;;;;;;;;;;;;-144.01;100.00;62166.59;5042151;28;20326;-67
2021/03/16 10:53:04;;;;;;;;;;;;;;;-144.01;100.00;62166.59;5042126;28;19917;-65
2021/03/16 10:55:31;;;;;;;;;;;;;;;-144.01;100.00;62166.59;5041934;28;20311;-67
2021/03/16 10:57:59;;;;;;;;;;;;;;;-144.01;100.00;62166.59;5041676;28;19920;-65
2021/03/16 11:00:26;;;;;;;;;;;;;;;-144.01;100.00;62166.59;5041640;28;20247;-60
2021/03/16 11:02:53;;;;;;;;;;;;;;;-144.01;100.00;62166.59;5041767;28;19920;-65
2021/03/16 11:05:20;;;;;;;;;;;;;;;-144.01;100.00;62166.59;5041552;28;19913;-65
2021/03/16 11:07:47;;;;;;;;;;;;;;;-144.01;100.00;62166.59;5041754;28;19913;-62
2021/03/16 11:10:14;;;;;;;;;;;;;;;-144.01;100.00;62166.59;5041026;28;19920;-67
2021/03/16 11:12:41;;;;;;;;;;;;;;;-144.01;100.00;62166.59;5041920;28;19921;-67
2021/03/16 11:15:08;;;;;;;;;;;;;;;-144.01;100.00;62166.59;5041919;28;19920;-67
2021/03/16 11:17:35;;;;;;;;;;;;;;;-144.01;100.00;62166.59;5041756;28;19913;-67
2021/03/16 11:20:03;;;;;;;;;;;;;;;-144.01;100.00;62166.59;5041896;28;19913;-66
2021/03/16 11:22:31;;;;;;;;;;;;;;;-144.01;100.00;62166.59;5028104;28;19920;-60
2021/03/16 11:24:58;;;;;;;;;;;;;;;-144.01;100.00;62166.59;5041027;28;19913;-64
2021/03/16 11:27:25;;;;;;;;;;;;;;;-144.01;100.00;62166.59;5033235;28;19917;-61
2021/03/16 11:29:52;;;;;;;;;;;;;;;-144.01;100.00;62166.59;5019064;28;19917;-64
2021/03/16 11:32:19;;;;;;;;;;;;;;;-144.01;100.00;62166.59;5035062;28;19924;-65
2021/03/16 11:35:05;;;;;;;;;;;;;;;-144.01;100.00;62166.59;5038598;28;19920;-63
2021/03/16 11:37:51;;;;;;;;;;;;;;;-144.01;100.00;62166.59;5037222;28;19913;-66
2021/03/16 11:40:36;;;;;;;;;;;;;;;-144.01;100.00;62166.59;5037667;28;19921;-63
2021/03/16 11:43:22;;;;;;;;;;;;;;;-144.01;100.00;62166.59;5038527;28;19917;-65
2021/03/16 11:46:27;;;;;;;;;;;;;;;-144.01;100.00;62166.59;5051493;28;20235;-65
2021/03/16 11:49:13;;;;;;;;;;;;;;;-144.01;100.00;62166.59;5038687;28;19920;-66
2021/03/16 11:51:58;;;;;;;;;;;;;;;-144.01;100.00;62166.59;5038120;28;19921;-66
2021/03/16 11:54:43;;;;;;;;;;;;;;;-144.01;100.00;62166.59;5031352;28;20205;-54
2021/03/16 11:57:31;;;;;;;;;;;;;;;-144.01;100.00;62166.59;5031441;28;19920;-51
2021/03/16 12:00:20;;;;;;;;;;;;;;;-144.01;100.00;62166.59;5027801;28;19924;-55
2021/03/16 12:03:05;;;;;;;;;;;;;;;-144.01;100.00;62166.59;5025021;28;19913;-52
2021/03/16 12:05:51;;;;;;;;;;;;;;;-144.01;100.00;62166.59;5038137;28;19913;-53
2021/03/16 12:08:37;;;;;;;;;;;;;;;-144.01;100.00;62166.59;5037177;28;19924;-52
2021/03/16 12:11:22;;;;;;;;;;;;;;;-144.01;100.00;62166.59;5037972;28;19940;-53
2021/03/16 12:14:08;;;;;;;;;;;;;;;-144.01;100.00;62166.59;5037850;28;19924;-56
2021/03/16 12:16:54;;;;;;;;;;;;;;;-144.01;100.00;62166.59;5037772;28;19920;-56
2021/03/16 12:19:39;;;;;;;;;;;;;;;-144.01;100.00;62166.59;5037918;28;20323;-53
2021/03/16 12:22:25;;;;;;;;;;;;;;;-144.01;100.00;62166.59;5036860;28;19913;-54
2021/03/16 12:25:11;;;;;;;;;;;;;;;-144.01;100.00;62166.59;5037723;28;19940;-53
2021/03/16 12:27:56;;;;;;;;;;;;;;;-144.01;100.00;62166.59;5028273;28;19925;-53
2021/03/16 12:30:42;;;;;;;;;;;;;;;-144.01;100.00;62166.59;5017280;28;20252;-47
2021/03/16 12:33:28;;;;;;;;;;;;;;;-144.01;100.00;62166.59;5035427;28;20234;-53
2021/03/16 12:36:14;;;;;;;;;;;;;;;-144.01;100.00;62166.59;5037133;28;20216;-58
2021/03/16 12:38:59;;;;;;;;;;;;;;;-144.01;100.00;62166.59;5036403;28;19916;-68
2021/03/16 12:41:45;;;;;;;;;;;;;;;-144.01;100.00;62166.59;5036993;28;19913;-58
2021/03/16 12:44:31;;;;;;;;;;;;;;;-144.01;100.00;62166.59;5037223;28;19913;-60
2021/03/16 12:47:17;;;;;;;;;;;;;;;-144.01;100.00;62166.59;5019291;28;19917;-63
2021/03/16 12:50:04;;;;;;;;;;;;;;;-144.01;100.00;62166.59;5019708;28;19913;-61
2021/03/16 12:52:50;;;;;;;;;;;;;;;-144.01;100.00;62166.59;5036903;28;19917;-64
2021/03/16 12:55:36;;;;;;;;;;;;;;;-144.01;100.00;62166.59;5036779;28;19924;-66
2021/03/16 12:58:22;;;;;;;;;;;;;;;-144.01;100.00;62166.59;5035474;28;19913;-66
2021/03/16 13:01:07;;;;;;;;;;;;;;;-144.01;100.00;62166.59;5036309;28;19944;-72
2021/03/16 13:03:53;;;;;;;;;;;;;;;-144.01;100.00;62166.59;5036944;28;19913;-73
2021/03/16 13:06:38;;;;;;;;;;;;;;;-144.01;100.00;62166.59;5036550;28;19912;-68
2021/03/16 13:09:24;;;;;;;;;;;;;;;-144.01;100.00;62166.59;5036733;28;19913;-67
2021/03/16 13:12:09;;;;;;;;;;;;;;;-144.01;100.00;62166.59;5036420;28;19924;-68
2021/03/16 13:14:54;;;;;;;;;;;;;;;-144.01;100.00;62166.59;5036627;28;19917;-66
2021/03/16 13:17:40;;;;;;;;;;;;;;;-144.01;100.00;62166.59;5036062;28;19913;-54
2021/03/16 13:20:25;;;;;;;;;;;;;;;-144.01;100.00;62166.59;5036556;28;20232;-74
2021/03/16 13:23:11;;;;;;;;;;;;;;;-144.01;100.00;62166.59;5016635;28;19920;-73
2021/03/16 13:25:57;;;;;;;;;;;;;;;-144.01;100.00;62166.59;5015640;28;19917;-72
2021/03/16 13:28:42;;;;;;;;;;;;;;;-144.01;100.00;62166.59;5031294;28;19917;-75
2021/03/16 13:31:28;;;;;;;;;;;;;;;-144.01;100.00;62166.59;5030663;28;19918;-74